createdAt,value
2022-11-16T00:02:00.392Z,100072.41
2022-11-16T00:05:03.733Z,100043.22
2022-11-16T00:08:06.465Z,100050.69
2022-11-16T00:11:11.878Z,100053.47
2022-11-16T00:14:14.284Z,100064.97
2022-11-16T00:17:16.694Z,100052.69
2022-11-16T00:20:19.048Z,100054.09
2022-11-16T00:23:21.467Z,100036.25
2022-11-16T00:26:24.267Z,100035.63
2022-11-16T00:29:27.243Z,100045.88
2022-11-16T00:32:29.692Z,100037.97
2022-11-16T00:35:32.561Z,100040.59
2022-11-16T00:38:35.324Z,100035.00
2022-11-16T00:41:37.964Z,100051.91
2022-11-16T00:44:40.405Z,100020.13
2022-11-16T00:47:42.817Z,100025.41
2022-11-16T00:50:45.916Z,100014.97
2022-11-16T00:53:49.214Z,100007.25
2022-11-16T00:56:53.049Z,100018.13
2022-11-16T00:59:56.261Z,99998.72
2022-11-16T01:02:58.985Z,100014.69
2022-11-16T01:06:05.525Z,100005.84
2022-11-16T01:09:07.888Z,100007.69
2022-11-16T01:12:10.317Z,99995.47
2022-11-16T01:15:13.677Z,100007.72
2022-11-16T01:18:17.641Z,100004.28
2022-11-16T01:21:21.284Z,99985.25
2022-11-16T01:24:25.089Z,99989.25
2022-11-16T01:27:27.654Z,99983.97
2022-11-16T01:30:31.091Z,99971.59
2022-11-16T01:33:40.484Z,99957.78
2022-11-16T01:36:48.984Z,99962.16
2022-11-16T01:39:52.649Z,99957.00
2022-11-16T01:42:55.324Z,99961.81
2022-11-16T01:45:57.749Z,99959.03
2022-11-16T01:49:02.653Z,99944.75
2022-11-16T01:52:08.904Z,99953.75
2022-11-16T01:55:13.149Z,99956.53
2022-11-16T01:58:36.344Z,99941.53
2022-11-16T02:01:52.883Z,99952.53
2022-11-16T02:04:58.385Z,99939.03
2022-11-16T02:08:55.828Z,99936.53
2022-11-16T02:12:12.183Z,99917.47
2022-11-16T02:15:39.367Z,99925.25
2022-11-16T02:19:04.841Z,99925.84
2022-11-16T02:22:26.737Z,99925.66
2022-11-16T02:25:40.372Z,99918.38
2022-11-16T02:28:45.900Z,99918.84
2022-11-16T02:32:06.306Z,99918.53
2022-11-16T02:35:31.216Z,99903.66
2022-11-16T02:38:40.030Z,99894.66
2022-11-16T02:41:44.397Z,99903.94
2022-11-16T02:44:50.827Z,99893.53
2022-11-16T02:47:56.340Z,99905.94
2022-11-16T02:50:58.891Z,99890.28
2022-11-16T02:54:08.677Z,99890.41
2022-11-16T02:57:28.909Z,99892.69
2022-11-16T03:00:38.077Z,99871.97
2022-11-16T03:03:43.402Z,99889.41
2022-11-16T03:06:46.868Z,99866.16
2022-11-16T03:09:50.301Z,99868.00
2022-11-16T03:12:52.892Z,99881.50
2022-11-16T03:15:56.371Z,99877.63
2022-11-16T03:19:03.405Z,99876.34
2022-11-16T03:22:15.454Z,99874.81
2022-11-16T03:25:20.684Z,99861.91
2022-11-16T03:28:32.573Z,99851.59
2022-11-16T03:31:49.574Z,99855.59
2022-11-16T03:34:59.968Z,99851.41
2022-11-16T03:38:05.771Z,99853.97
2022-11-16T03:41:09.821Z,99842.56
2022-11-16T03:44:14.376Z,99837.88
2022-11-16T03:47:17.812Z,99842.84
2022-11-16T03:50:21.652Z,99840.31
2022-11-16T03:53:24.081Z,99801.50
2022-11-16T03:56:26.616Z,99809.75
2022-11-16T03:59:30.097Z,99821.22
2022-11-16T04:02:33.469Z,99805.88
2022-11-16T04:05:54.469Z,99816.97
2022-11-16T04:09:15.758Z,99797.16
2022-11-16T04:12:39.052Z,99804.41
2022-11-16T04:16:00.926Z,99798.97
2022-11-16T04:19:22.006Z,99760.56
2022-11-16T04:22:53.088Z,99793.38
2022-11-16T04:25:55.686Z,99741.81
2022-11-16T04:28:59.502Z,99788.88
2022-11-16T04:32:21.043Z,99785.09
2022-11-16T04:35:42.240Z,99773.50
2022-11-16T04:38:46.301Z,99771.81
2022-11-16T04:42:09.053Z,99746.72
2022-11-16T04:45:46.740Z,99748.53
2022-11-16T04:48:50.853Z,99739.84
2022-11-16T04:51:54.565Z,99758.41
2022-11-16T04:54:59.155Z,99766.44
2022-11-16T04:58:03.540Z,99771.91
2022-11-16T05:01:06.925Z,99771.31
2022-11-16T05:04:10.180Z,99750.13
2022-11-16T05:07:14.555Z,99769.00
2022-11-16T05:10:19.475Z,99760.13
2022-11-16T05:13:21.968Z,99762.28
2022-11-16T05:16:26.078Z,99742.94
2022-11-16T05:19:48.440Z,99752.22
2022-11-16T05:22:56.376Z,99763.16
2022-11-16T05:26:00.821Z,99768.91
2022-11-16T05:29:04.491Z,99735.16
2022-11-16T05:32:07.731Z,99739.84
2022-11-16T05:35:10.355Z,99735.34
2022-11-16T05:38:14.678Z,99755.88
2022-11-16T05:41:22.026Z,99754.00
2022-11-16T05:44:25.810Z,99760.84
2022-11-16T05:47:28.732Z,99739.41
2022-11-16T05:50:34.722Z,99744.03
2022-11-16T05:53:46.561Z,99758.19
2022-11-16T05:56:55.860Z,99756.22
2022-11-16T05:59:59.665Z,99733.69
2022-11-16T06:03:03.980Z,99730.91
2022-11-16T06:06:08.812Z,99742.44
2022-11-16T06:09:12.444Z,99739.47
2022-11-16T06:12:15.372Z,99709.94
2022-11-16T06:15:18.569Z,99737.56
2022-11-16T06:18:21.425Z,99735.34
2022-11-16T06:21:25.491Z,99733.63
2022-11-16T06:24:29.370Z,99734.69
2022-11-16T06:27:32.062Z,99730.78
2022-11-16T06:30:34.760Z,99727.81
2022-11-16T06:33:38.548Z,99710.94
2022-11-16T06:36:46.245Z,99707.50
2022-11-16T06:39:49.620Z,99714.91
2022-11-16T06:42:52.743Z,99705.88
2022-11-16T06:45:57.730Z,99706.47
2022-11-16T06:49:00.596Z,99709.69
2022-11-16T06:52:03.129Z,99712.97
2022-11-16T06:55:07.207Z,99697.81
2022-11-16T06:58:11.993Z,99724.09
2022-11-16T07:01:17.230Z,99708.00
2022-11-16T07:04:22.923Z,99709.47
2022-11-16T07:07:31.660Z,99714.56
2022-11-16T07:10:35.649Z,99714.75
2022-11-16T07:13:39.300Z,99718.69
2022-11-16T07:16:44.122Z,99706.69
2022-11-16T07:19:48.722Z,99701.75
2022-11-16T07:22:51.451Z,99681.81
2022-11-16T07:25:54.249Z,99681.28
2022-11-16T07:29:10.319Z,99690.59
2022-11-16T07:32:17.168Z,99666.47
2022-11-16T07:35:49.340Z,99676.09
2022-11-16T07:38:52.882Z,99668.59
2022-11-16T07:41:56.421Z,99662.09
2022-11-16T07:45:24.803Z,99669.22
2022-11-16T07:48:33.371Z,99663.81
2022-11-16T07:51:54.920Z,99658.16
2022-11-16T07:55:20.404Z,99668.00
2022-11-16T07:58:28.853Z,99682.00
2022-11-16T08:01:33.416Z,99654.16
2022-11-16T08:04:38.388Z,99650.06
2022-11-16T08:07:40.920Z,99657.47
2022-11-16T08:10:43.651Z,99672.03
2022-11-16T08:13:47.277Z,99640.06
2022-11-16T08:16:49.832Z,99648.00
2022-11-16T08:19:54.874Z,99659.88
2022-11-16T08:23:01.095Z,99648.00
2022-11-16T08:26:09.461Z,99663.31
2022-11-16T08:29:15.186Z,99646.91
2022-11-16T08:32:23.290Z,99659.72
2022-11-16T08:35:25.896Z,99670.09
2022-11-16T08:38:28.663Z,99667.53
2022-11-16T08:41:31.478Z,99646.06
2022-11-16T08:44:35.283Z,99630.88
2022-11-16T08:47:41.512Z,99647.81
2022-11-16T08:51:10.436Z,99659.94
2022-11-16T08:54:06.718Z,99654.66
2022-11-16T08:57:12.406Z,99655.31
2022-11-16T09:00:19.337Z,99652.13
2022-11-16T09:03:23.502Z,99654.78
2022-11-16T09:06:27.510Z,99653.34
2022-11-16T09:09:29.932Z,99650.69
2022-11-16T09:12:34.110Z,99639.91
2022-11-16T09:15:36.850Z,99640.56
2022-11-16T09:18:39.650Z,99640.25
2022-11-16T09:21:42.656Z,99632.63
2022-11-16T09:24:45.213Z,99631.53
2022-11-16T09:27:47.661Z,99629.81
2022-11-16T09:30:51.343Z,99624.09
2022-11-16T09:33:55.365Z,99629.59
2022-11-16T09:36:57.934Z,99624.19
2022-11-16T09:40:00.539Z,99627.94
2022-11-16T09:43:18.218Z,99627.69
2022-11-16T09:46:20.614Z,99622.53
2022-11-16T09:49:26.840Z,99602.72
2022-11-16T09:52:49.508Z,99622.63
2022-11-16T09:55:59.923Z,99597.88
2022-11-16T09:59:04.878Z,99604.56
2022-11-16T10:02:29.606Z,99601.81
2022-11-16T10:05:39.239Z,99592.84
2022-11-16T10:08:45.585Z,99591.28
2022-11-16T10:12:06.803Z,99581.50
2022-11-16T10:15:36.334Z,99584.34
2022-11-16T10:19:14.983Z,99576.09
2022-11-16T10:22:24.140Z,99578.41
2022-11-16T10:25:53.504Z,99564.34
2022-11-16T10:29:05.216Z,99573.63
2022-11-16T10:32:28.988Z,99561.97
2022-11-16T10:35:42.198Z,99545.97
2022-11-16T10:38:45.562Z,99537.50
2022-11-16T10:41:51.480Z,99557.84
2022-11-16T10:44:58.696Z,99553.97
2022-11-16T10:48:39.568Z,99548.94
2022-11-16T10:51:43.112Z,99540.84
2022-11-16T10:54:45.655Z,99528.16
2022-11-16T10:58:05.318Z,99519.41
2022-11-16T11:01:12.582Z,99503.94
2022-11-16T11:04:16.416Z,99539.31
2022-11-16T11:07:24.638Z,99494.38
2022-11-16T11:10:33.471Z,99531.13
2022-11-16T11:13:36.344Z,99506.78
2022-11-16T11:16:41.401Z,99506.44
2022-11-16T11:19:44.804Z,99500.41
2022-11-16T11:22:56.476Z,99514.47
2022-11-16T11:26:00.337Z,99479.59
2022-11-16T11:29:09.395Z,99501.16
2022-11-16T11:32:19.460Z,99497.38
2022-11-16T11:35:34.274Z,99497.72
2022-11-16T11:39:15.325Z,99498.38
2022-11-16T11:42:18.040Z,99482.28
2022-11-16T11:45:22.793Z,99485.66
2022-11-16T11:48:47.812Z,99476.69
2022-11-16T11:51:52.304Z,99471.16
2022-11-16T11:54:55.837Z,99471.09
2022-11-16T11:57:59.544Z,99469.31
2022-11-16T12:01:13.671Z,99475.31
2022-11-16T12:04:53.517Z,99466.91
2022-11-16T12:08:17.265Z,99467.44
2022-11-16T12:11:25.640Z,99463.00
2022-11-16T12:15:08.646Z,99460.84
2022-11-16T12:18:29.348Z,99457.44
2022-11-16T12:21:48.476Z,99435.19
2022-11-16T12:25:31.408Z,99453.03
2022-11-16T12:28:51.335Z,99451.59
2022-11-16T12:32:25.580Z,99444.72
2022-11-16T12:35:48.815Z,99440.13
2022-11-16T12:38:59.545Z,99445.34
2022-11-16T12:42:20.841Z,99445.50
2022-11-16T12:45:32.588Z,99432.19
2022-11-16T12:48:59.125Z,99451.44
2022-11-16T12:52:23.494Z,99438.94
2022-11-16T12:55:32.907Z,99438.72
2022-11-16T12:59:04.471Z,99415.72
2022-11-16T13:02:30.053Z,99433.34
2022-11-16T13:05:48.184Z,99429.22
2022-11-16T13:09:11.538Z,99419.13
2022-11-16T13:12:17.380Z,99406.88
2022-11-16T13:15:21.973Z,99417.34
2022-11-16T13:18:25.369Z,99405.38
2022-11-16T13:21:32.295Z,99399.88
2022-11-16T13:24:58.740Z,99399.22
2022-11-16T13:28:29.378Z,99414.75
2022-11-16T13:31:38.781Z,99416.94
2022-11-16T13:34:41.549Z,99392.97
2022-11-16T13:37:51.947Z,99400.13
2022-11-16T13:41:32.537Z,99410.38
2022-11-16T13:44:35.086Z,99388.25
2022-11-16T13:47:37.587Z,99374.75
2022-11-16T13:50:40.178Z,99397.47
2022-11-16T13:57:31.929Z,99392.34
2022-11-16T14:00:39.592Z,99387.25
2022-11-16T14:03:43.527Z,99394.72
2022-11-16T14:06:45.904Z,99394.31
2022-11-16T14:09:51.430Z,99391.56
2022-11-16T14:12:54.510Z,99394.16
2022-11-16T14:16:14.974Z,99393.06
2022-11-16T14:19:49.110Z,99387.13
2022-11-16T14:22:57.212Z,99361.63
2022-11-16T14:26:02.561Z,99382.91
2022-11-16T14:29:27.866Z,99368.00
2022-11-16T14:32:41.271Z,99352.34
2022-11-16T14:35:51.047Z,99358.19
2022-11-16T14:38:53.542Z,99349.19
2022-11-16T14:42:02.053Z,99342.91
2022-11-16T14:45:13.557Z,99350.69
2022-11-16T14:48:18.656Z,99354.34
2022-11-16T14:51:41.379Z,99341.22
2022-11-16T14:54:55.748Z,99320.13
2022-11-16T14:58:08.792Z,99345.50
2022-11-16T15:01:14.809Z,99333.28
2022-11-16T15:04:18.067Z,99315.81
2022-11-16T15:07:23.083Z,99325.91
2022-11-16T15:10:28.102Z,99324.63
2022-11-16T15:13:30.494Z,99314.47
2022-11-16T15:16:32.832Z,99324.25
2022-11-16T15:19:35.836Z,99316.34
2022-11-16T15:22:40.633Z,99323.16
2022-11-16T15:25:45.092Z,99324.34
2022-11-16T15:28:50.195Z,99317.63
2022-11-16T15:31:52.691Z,99319.50
2022-11-16T15:34:55.096Z,99314.91
2022-11-16T15:38:16.275Z,99303.91
2022-11-16T15:41:19.406Z,99295.22
2022-11-16T15:44:22.657Z,99303.66
2022-11-16T15:47:25.313Z,99281.47
2022-11-16T15:50:28.107Z,99310.47
2022-11-16T15:53:44.707Z,99300.25
2022-11-16T15:56:47.198Z,99310.91
2022-11-16T15:59:54.596Z,99298.63
2022-11-16T16:03:04.190Z,99309.59
2022-11-16T16:06:08.580Z,99305.44
2022-11-16T16:09:14.601Z,99295.63
2022-11-16T16:12:24.673Z,99314.00
2022-11-16T16:15:36.149Z,99297.44
2022-11-16T16:18:43.183Z,99275.13
2022-11-16T16:21:46.437Z,99288.72
2022-11-16T16:24:48.859Z,99299.13
2022-11-16T16:27:51.256Z,99290.69
2022-11-16T16:30:53.579Z,99302.03
2022-11-16T16:33:56.086Z,99295.63
2022-11-16T16:36:58.421Z,99267.81
2022-11-16T16:40:00.853Z,99273.97
2022-11-16T16:43:03.252Z,99259.28
2022-11-16T16:46:05.938Z,99264.66
2022-11-16T16:49:08.341Z,99266.63
2022-11-16T16:52:12.117Z,99279.13
2022-11-16T16:55:14.625Z,99283.63
2022-11-16T16:58:17.036Z,99271.44
2022-11-16T17:01:19.450Z,99279.78
2022-11-16T17:04:22.087Z,99263.75
2022-11-16T17:07:25.183Z,99272.47
2022-11-16T17:10:27.679Z,99268.28
2022-11-16T17:13:30.333Z,99256.84
2022-11-16T17:16:32.849Z,99254.88
2022-11-16T17:19:35.656Z,99271.00
2022-11-16T17:22:38.316Z,99271.69
2022-11-16T17:25:41.411Z,99269.88
2022-11-16T17:28:44.290Z,99260.78
2022-11-16T17:31:47.617Z,99261.13
2022-11-16T17:34:50.210Z,99244.72
2022-11-16T17:37:52.841Z,99263.28
2022-11-16T17:41:04.004Z,99260.09
2022-11-16T17:44:06.857Z,99237.94
2022-11-16T17:47:09.224Z,99250.09
2022-11-16T17:50:11.982Z,99245.50
2022-11-16T17:53:14.545Z,99224.44
2022-11-16T17:56:19.875Z,99233.31
2022-11-16T17:59:27.975Z,99235.88
2022-11-16T18:02:32.475Z,99217.72
2022-11-16T18:05:35.102Z,99242.53
2022-11-16T18:08:37.883Z,99232.84
2022-11-16T18:11:40.406Z,99229.22
2022-11-16T18:14:59.952Z,99244.31
2022-11-16T18:18:06.058Z,99243.13
2022-11-16T18:21:09.626Z,99237.00
2022-11-16T18:24:12.703Z,99241.19
2022-11-16T18:27:15.462Z,99232.38
2022-11-16T18:30:18.217Z,99221.97
2022-11-16T18:33:20.576Z,99233.16
2022-11-16T18:36:23.037Z,99240.50
2022-11-16T18:39:25.723Z,99230.25
2022-11-16T18:42:28.367Z,99228.28
2022-11-16T18:45:31.096Z,99212.78
2022-11-16T18:48:33.845Z,99196.00
2022-11-16T18:51:36.489Z,99206.22
2022-11-16T18:54:39.146Z,99205.56
2022-11-16T18:57:41.756Z,99200.94
2022-11-16T19:00:46.040Z,99212.13
2022-11-16T19:03:48.702Z,99196.50
2022-11-16T19:06:51.274Z,99197.53
2022-11-16T19:09:54.083Z,99203.22
2022-11-16T19:12:57.419Z,99182.94
2022-11-16T19:15:59.883Z,99189.50
2022-11-16T19:19:03.009Z,99194.03
2022-11-16T19:22:05.335Z,99199.41
2022-11-16T19:25:08.205Z,99180.72
2022-11-16T19:28:10.787Z,99187.56
2022-11-16T19:31:16.202Z,99185.16
2022-11-16T19:34:19.054Z,99189.00
2022-11-16T19:37:21.635Z,99173.28
2022-11-16T19:40:25.321Z,99196.44
2022-11-16T19:43:28.124Z,99189.19
2022-11-16T19:46:31.999Z,99182.38
2022-11-16T19:49:34.951Z,99186.19
2022-11-16T19:52:37.940Z,99181.19
2022-11-16T19:55:41.782Z,99167.78
2022-11-16T19:58:44.611Z,99171.72
2022-11-16T20:01:47.301Z,99160.09
2022-11-16T20:04:49.809Z,99166.50
2022-11-16T20:07:52.647Z,99173.47
2022-11-16T20:10:55.279Z,99160.44
2022-11-16T20:13:59.128Z,99167.44
2022-11-16T20:17:01.990Z,99167.00
2022-11-16T20:20:04.999Z,99157.91
2022-11-16T20:23:07.661Z,99164.47
2022-11-16T20:26:11.053Z,99157.63
2022-11-16T20:29:15.654Z,99136.50
2022-11-16T20:32:18.143Z,99146.81
2022-11-16T20:35:20.752Z,99158.31
2022-11-16T20:38:23.433Z,99150.31
2022-11-16T20:41:27.927Z,99142.56
2022-11-16T20:44:31.271Z,99152.16
2022-11-16T20:47:34.082Z,99129.59
2022-11-16T20:50:36.568Z,99146.47
2022-11-16T20:53:39.172Z,99138.97
2022-11-16T20:56:41.706Z,99130.34
2022-11-16T20:59:44.087Z,99136.19
2022-11-16T21:02:46.672Z,99119.28
2022-11-16T21:05:52.029Z,99118.50
2022-11-16T21:08:55.388Z,99124.66
2022-11-16T21:12:16.283Z,99113.91
2022-11-16T21:15:19.056Z,99124.75
2022-11-16T21:18:24.238Z,99116.31
2022-11-16T21:21:29.732Z,99128.06
2022-11-16T21:24:32.247Z,99114.00
2022-11-16T21:27:34.712Z,99118.69
2022-11-16T21:30:37.197Z,99114.41
2022-11-16T21:33:39.678Z,99100.19
2022-11-16T21:36:42.143Z,99099.78
2022-11-16T21:39:44.576Z,99099.53
2022-11-16T21:42:47.478Z,99108.31
2022-11-16T21:45:51.043Z,99096.19
2022-11-16T21:48:55.368Z,99090.84
2022-11-16T21:51:57.898Z,99107.28
2022-11-16T21:55:00.377Z,99103.19
2022-11-16T21:58:03.642Z,99101.66
2022-11-16T22:01:06.461Z,99097.38
2022-11-16T22:04:27.758Z,99087.59
2022-11-16T22:07:32.996Z,99083.78
2022-11-16T22:10:41.839Z,99089.91
2022-11-16T22:13:44.246Z,99083.69
2022-11-16T22:16:46.549Z,99082.91
2022-11-16T22:19:49.047Z,99069.22
2022-11-16T22:22:51.461Z,99079.84
2022-11-16T22:25:54.566Z,99102.44
2022-11-16T22:28:58.363Z,99085.22
2022-11-16T22:32:00.778Z,99079.28
2022-11-16T22:35:03.311Z,99092.28
2022-11-16T22:38:05.778Z,99070.06
2022-11-16T22:41:08.102Z,99070.31
2022-11-16T22:44:10.488Z,99070.22
2022-11-16T22:47:12.903Z,99074.50
2022-11-16T22:50:15.632Z,99073.31
2022-11-16T22:53:18.003Z,99073.03
2022-11-16T22:56:20.675Z,99060.94
2022-11-16T22:59:23.073Z,99060.94
2022-11-16T23:02:25.431Z,99037.34
2022-11-16T23:05:27.771Z,99057.28
2022-11-16T23:08:30.252Z,99044.84
2022-11-16T23:11:50.987Z,99044.34
2022-11-16T23:15:12.071Z,99046.13
2022-11-16T23:18:15.001Z,99043.09
2022-11-16T23:21:35.967Z,99031.56
2022-11-16T23:24:56.992Z,99027.84
2022-11-16T23:28:12.343Z,99040.69
2022-11-16T23:31:14.727Z,99041.88
2022-11-16T23:34:17.087Z,99045.53
2022-11-16T23:37:19.478Z,99036.84
2022-11-16T23:40:23.949Z,99044.00
2022-11-16T23:43:44.630Z,99037.94
2022-11-16T23:46:47.084Z,99022.97
2022-11-16T23:49:49.724Z,99021.19
2022-11-16T23:52:52.219Z,99019.97
2022-11-16T23:55:54.561Z,99027.75
2022-11-16T23:59:00.086Z,99031.47
